Time;durP1;ratioP1;P1;durP2;ratioP2;P2;SDS_P1;SDS_P2;PMS_P1;PMS_P2;Temp;Humidity;BMP_temperature;BMP_pressure;BME280_temperature;BME280_humidity;BME280_pressure;Samples;Min_cycle;Max_cycle;Signal;HPM_P1;HPM_P2
2023/04/07 00:01:59;;;;;;;8.77;5.40;;;9.70;99.90;;;;;;4153531;28;20033;-66
2023/04/07 00:04:00;;;;;;;6.72;4.80;;;9.70;99.90;;;;;;4167182;28;20044;-66
2023/04/07 00:06:07;;;;;;;7.88;5.50;;;9.70;99.90;;;;;;4165551;28;20033;-66
2023/04/07 00:08:07;;;;;;;8.82;6.28;;;9.70;99.90;;;;;;4161539;28;20068;-65
2023/04/07 00:10:09;;;;;;;9.80;6.25;;;9.70;99.90;;;;;;4167380;28;20093;-67
2023/04/07 00:12:10;;;;;;;9.30;6.60;;;9.70;99.90;;;;;;4167236;28;20041;-66
2023/04/07 00:14:10;;;;;;;9.35;6.35;;;9.70;99.90;;;;;;4168579;28;20076;-66
2023/04/07 00:16:11;;;;;;;8.63;6.45;;;9.70;99.90;;;;;;4170499;28;20029;-66
2023/04/07 00:18:11;;;;;;;8.63;6.80;;;9.70;99.90;;;;;;4166075;28;20489;-66
2023/04/07 00:20:12;;;;;;;10.43;7.38;;;9.70;99.90;;;;;;4166908;28;20120;-66
2023/04/07 00:22:12;;;;;;;12.27;8.18;;;9.70;99.90;;;;;;4166582;28;20022;-66
2023/04/07 00:24:13;;;;;;;11.43;8.00;;;9.70;99.90;;;;;;4166222;28;20042;-66
2023/04/07 00:26:14;;;;;;;10.98;8.02;;;9.80;99.90;;;;;;4163616;28;20029;-66
2023/04/07 00:28:14;;;;;;;11.05;7.80;;;9.80;99.90;;;;;;4161897;28;20109;-66
2023/04/07 00:30:16;;;;;;;12.20;8.80;;;9.80;99.90;;;;;;4163841;28;20032;-66
2023/04/07 00:32:17;;;;;;;13.25;8.13;;;9.80;99.90;;;;;;4165974;28;20040;-66
2023/04/07 00:34:17;;;;;;;10.77;8.13;;;9.80;99.90;;;;;;4165296;28;20026;-66
2023/04/07 00:36:18;;;;;;;11.68;8.95;;;9.80;99.90;;;;;;4168892;28;20392;-66
2023/04/07 00:38:19;;;;;;;12.73;9.20;;;9.90;99.90;;;;;;4164691;28;20091;-66
2023/04/07 00:40:19;;;;;;;13.48;9.18;;;9.90;99.90;;;;;;4165225;28;20121;-66
2023/04/07 00:42:20;;;;;;;13.70;10.07;;;9.90;99.90;;;;;;4167652;28;20025;-67
2023/04/07 00:44:20;;;;;;;14.55;9.30;;;9.90;99.90;;;;;;4174217;28;20103;-66
2023/04/07 00:46:22;;;;;;;13.50;9.75;;;9.90;99.90;;;;;;4164793;28;20030;-67
2023/04/07 00:48:23;;;;;;;12.70;9.25;;;10.00;99.90;;;;;;4168092;28;20160;-66
2023/04/07 00:50:24;;;;;;;12.85;9.05;;;10.00;99.90;;;;;;4170800;28;20044;-66
2023/04/07 00:52:27;;;;;;;13.57;9.40;;;10.00;99.90;;;;;;4166269;28;20296;-65
2023/04/07 00:54:30;;;;;;;14.38;10.10;;;10.00;99.90;;;;;;4166530;28;20030;-66
2023/04/07 00:56:31;;;;;;;13.90;9.80;;;10.10;99.90;;;;;;4168203;28;20029;-66
2023/04/07 00:58:32;;;;;;;16.02;11.68;;;10.00;99.90;;;;;;4169025;28;20040;-66
2023/04/07 01:00:37;;;;;;;16.17;11.27;;;10.10;99.90;;;;;;4163936;28;20318;-66
2023/04/07 01:02:42;;;;;;;15.57;11.65;;;10.10;99.90;;;;;;4167252;28;20036;-67
2023/04/07 01:05:15;;;;;;;17.17;11.95;;;10.10;99.90;;;;;;4165465;28;20029;-66
2023/04/07 01:07:20;;;;;;;18.08;11.70;;;10.10;99.90;;;;;;4165903;28;20467;-66
2023/04/07 01:09:29;;;;;;;17.08;12.05;;;10.10;99.90;;;;;;4161520;28;20033;-66
2023/04/07 01:11:40;;;;;;;20.60;13.43;;;10.10;99.90;;;;;;4167738;28;20029;-66
2023/04/07 01:13:49;;;;;;;22.58;14.98;;;10.10;99.90;;;;;;4165187;28;20044;-67
2023/04/07 01:15:55;;;;;;;24.05;15.98;;;10.00;99.90;;;;;;4170790;28;20488;-66
2023/04/07 01:18:16;;;;;;;25.92;16.83;;;10.00;99.90;;;;;;4170722;28;20037;-66
2023/04/07 01:20:20;;;;;;;27.13;17.30;;;10.00;99.90;;;;;;4172604;28;20040;-67
2023/04/07 01:22:26;;;;;;;26.20;17.15;;;10.00;99.90;;;;;;4171104;28;20124;-67
2023/04/07 01:24:32;;;;;;;27.17;18.10;;;10.00;99.90;;;;;;4171447;28;20087;-66
2023/04/07 01:26:36;;;;;;;24.48;16.80;;;10.00;99.90;;;;;;4169200;28;20041;-66
2023/04/07 01:28:42;;;;;;;31.08;18.27;;;10.00;99.90;;;;;;4175941;28;20064;-67
2023/04/07 01:30:44;;;;;;;25.02;16.52;;;9.90;99.90;;;;;;4171618;28;20021;-66
2023/04/07 01:32:50;;;;;;;29.57;17.03;;;9.90;99.90;;;;;;4170563;28;20025;-68
2023/04/07 01:34:52;;;;;;;28.70;18.67;;;9.90;99.90;;;;;;4175598;28;20039;-66
2023/04/07 01:36:54;;;;;;;30.80;20.00;;;9.90;99.90;;;;;;4170083;28;20059;-67
2023/04/07 01:38:57;;;;;;;31.30;19.83;;;9.90;99.90;;;;;;4171188;28;20188;-67
2023/04/07 01:41:00;;;;;;;30.42;18.00;;;9.80;99.90;;;;;;4172470;28;20033;-66
2023/04/07 01:43:01;;;;;;;26.55;18.60;;;9.80;99.90;;;;;;4172691;28;20029;-66
2023/04/07 01:45:03;;;;;;;28.02;17.45;;;9.80;99.90;;;;;;4177043;28;20538;-66
2023/04/07 01:47:04;;;;;;;28.17;17.27;;;9.80;99.90;;;;;;4172247;28;20060;-66
2023/04/07 01:49:06;;;;;;;28.88;17.85;;;9.80;99.90;;;;;;4175408;28;20128;-66
2023/04/07 01:51:07;;;;;;;28.17;18.88;;;9.80;99.90;;;;;;4174948;28;20480;-66
2023/04/07 01:53:07;;;;;;;29.15;17.83;;;9.80;99.90;;;;;;4170794;28;20028;-66
2023/04/07 01:55:09;;;;;;;30.63;16.67;;;9.80;99.90;;;;;;4168574;28;20044;-67
2023/04/07 01:57:10;;;;;;;25.37;17.50;;;9.80;99.90;;;;;;4175050;28;20029;-66
2023/04/07 01:59:11;;;;;;;28.15;17.95;;;9.80;99.90;;;;;;4173369;28;20610;-66
2023/04/07 02:01:13;;;;;;;27.02;16.23;;;9.80;99.90;;;;;;4167921;28;20495;-67
2023/04/07 02:03:26;;;;;;;27.83;16.02;;;9.80;99.90;;;;;;4170825;28;20061;-67
2023/04/07 02:05:29;;;;;;;21.88;14.80;;;9.80;99.90;;;;;;4171881;28;20111;-66
2023/04/07 02:08:00;;;;;;;26.63;15.02;;;9.80;99.90;;;;;;4171099;28;20049;-66
2023/04/07 02:10:05;;;;;;;18.75;12.82;;;9.80;99.90;;;;;;4166309;28;20033;-66
2023/04/07 02:12:10;;;;;;;24.02;14.55;;;9.80;99.90;;;;;;4167459;28;20045;-66
2023/04/07 02:14:12;;;;;;;21.38;14.07;;;9.80;99.90;;;;;;4172823;28;20026;-67
2023/04/07 02:16:15;;;;;;;21.27;13.53;;;9.80;99.90;;;;;;4172890;28;20130;-66
2023/04/07 02:18:18;;;;;;;24.33;14.40;;;9.80;99.90;;;;;;4171610;28;20291;-66
2023/04/07 02:20:20;;;;;;;22.95;13.60;;;9.80;99.90;;;;;;4164802;28;20034;-66
2023/04/07 02:22:21;;;;;;;25.98;15.13;;;9.80;99.90;;;;;;4172906;28;20062;-66
2023/04/07 02:24:21;;;;;;;19.50;12.93;;;9.80;99.90;;;;;;4173235;28;20394;-66
2023/04/07 02:26:22;;;;;;;22.50;13.85;;;9.80;99.90;;;;;;4167948;28;20032;-66
2023/04/07 02:28:23;;;;;;;19.75;12.85;;;9.80;99.90;;;;;;4166648;28;20026;-66
2023/04/07 02:30:24;;;;;;;18.45;12.27;;;9.80;99.90;;;;;;4167588;28;20084;-66
2023/04/07 02:32:25;;;;;;;19.33;12.10;;;9.70;99.90;;;;;;4167658;28;20026;-66
2023/04/07 02:34:26;;;;;;;24.95;15.15;;;9.70;99.90;;;;;;4175567;28;20071;-66
2023/04/07 02:36:26;;;;;;;21.90;13.77;;;9.80;99.90;;;;;;4170050;28;20029;-66
2023/04/07 02:38:27;;;;;;;20.52;13.20;;;9.70;99.90;;;;;;4168204;28;20033;-66
2023/04/07 02:40:27;;;;;;;20.27;13.32;;;9.70;99.90;;;;;;4169000;28;20028;-66
2023/04/07 02:42:28;;;;;;;18.95;12.40;;;9.70;99.90;;;;;;4172321;28;20060;-66
2023/04/07 02:44:29;;;;;;;19.58;12.80;;;9.70;99.90;;;;;;4171026;28;20116;-66
2023/04/07 02:46:29;;;;;;;16.65;11.55;;;9.70;99.90;;;;;;4164970;28;20026;-66
2023/04/07 02:48:30;;;;;;;19.83;12.93;;;9.70;99.90;;;;;;4173168;28;20021;-66
2023/04/07 02:50:32;;;;;;;18.87;12.27;;;9.70;99.90;;;;;;4168585;28;20049;-66
2023/04/07 02:52:32;;;;;;;23.98;13.65;;;9.70;99.90;;;;;;4171534;28;20064;-66
2023/04/07 02:54:33;;;;;;;19.50;11.48;;;9.60;99.90;;;;;;4172693;28;20025;-66
2023/04/07 02:56:33;;;;;;;19.55;11.75;;;9.60;99.90;;;;;;4172731;28;20029;-66
2023/04/07 02:58:34;;;;;;;16.55;10.35;;;9.60;99.90;;;;;;4169256;28;20049;-66
2023/04/07 03:00:34;;;;;;;16.23;11.63;;;9.60;99.90;;;;;;4169165;28;20033;-66
2023/04/07 03:02:35;;;;;;;18.75;11.07;;;9.60;99.90;;;;;;4169307;28;20064;-66
2023/04/07 03:04:36;;;;;;;20.38;11.23;;;9.60;99.90;;;;;;4170448;28;20029;-66
2023/04/07 03:06:37;;;;;;;15.73;10.55;;;9.60;99.90;;;;;;4169250;28;20450;-66
2023/04/07 03:08:37;;;;;;;16.55;11.02;;;9.60;99.90;;;;;;4173745;28;20082;-66
2023/04/07 03:10:38;;;;;;;16.73;10.30;;;9.50;99.90;;;;;;4170724;28;20025;-66
2023/04/07 03:12:38;;;;;;;17.20;10.95;;;9.60;99.90;;;;;;4169343;28;20037;-66
2023/04/07 03:14:39;;;;;;;19.27;10.98;;;9.50;99.90;;;;;;4172261;28;20468;-66
2023/04/07 03:16:40;;;;;;;15.52;10.20;;;9.50;99.90;;;;;;4170325;28;20060;-66
2023/04/07 03:18:40;;;;;;;19.67;11.45;;;9.50;99.90;;;;;;4165925;28;20033;-66
2023/04/07 03:20:41;;;;;;;19.92;11.07;;;9.50;99.90;;;;;;4171529;28;20116;-66
2023/04/07 03:22:43;;;;;;;18.23;11.70;;;9.50;99.90;;;;;;4172645;28;20484;-66
2023/04/07 03:24:43;;;;;;;20.05;10.88;;;9.40;99.90;;;;;;4172572;28;20130;-66
2023/04/07 03:26:44;;;;;;;19.92;12.13;;;9.50;99.90;;;;;;4171710;28;20128;-67
2023/04/07 03:28:45;;;;;;;19.33;11.25;;;9.50;99.90;;;;;;4166460;28;20055;-67
2023/04/07 03:30:45;;;;;;;16.77;10.40;;;9.50;99.90;;;;;;4168376;28;20040;-67
2023/04/07 03:32:46;;;;;;;15.68;9.95;;;9.50;99.90;;;;;;4166437;28;20036;-67
2023/04/07 03:34:46;;;;;;;13.50;10.40;;;9.50;99.90;;;;;;4171614;28;20101;-67
2023/04/07 03:36:47;;;;;;;17.15;10.65;;;9.50;99.90;;;;;;4172075;28;20037;-67
2023/04/07 03:38:47;;;;;;;14.68;10.35;;;9.60;99.90;;;;;;4170164;28;20053;-68
2023/04/07 03:40:48;;;;;;;15.10;9.70;;;9.60;99.90;;;;;;4166777;28;20045;-68
2023/04/07 03:42:49;;;;;;;17.42;11.00;;;9.50;99.90;;;;;;4166396;28;20033;-68
2023/04/07 03:44:50;;;;;;;16.77;11.05;;;9.60;99.90;;;;;;4172347;28;20112;-68
2023/04/07 03:46:52;;;;;;;16.55;11.07;;;9.60;99.90;;;;;;4172098;28;20071;-68
2023/04/07 03:48:53;;;;;;;18.75;12.55;;;9.60;99.90;;;;;;4170069;28;20029;-67
2023/04/07 03:50:53;;;;;;;23.70;13.07;;;9.60;99.90;;;;;;4168680;28;20128;-67
2023/04/07 03:52:54;;;;;;;20.85;12.15;;;9.60;99.90;;;;;;4164817;28;20044;-67
2023/04/07 03:54:54;;;;;;;18.58;12.00;;;9.60;99.90;;;;;;4175924;28;20120;-67
2023/04/07 03:56:56;;;;;;;20.25;12.35;;;9.60;99.90;;;;;;4173743;28;20036;-68
2023/04/07 03:58:56;;;;;;;19.30;12.27;;;9.60;99.90;;;;;;4167864;28;20037;-67
2023/04/07 04:00:57;;;;;;;13.65;10.02;;;9.50;99.90;;;;;;4172172;28;20048;-67
2023/04/07 04:02:58;;;;;;;17.70;11.23;;;9.60;99.90;;;;;;4167844;28;20036;-67
2023/04/07 04:04:59;;;;;;;19.95;11.35;;;9.50;99.90;;;;;;4172575;28;20036;-67
2023/04/07 04:07:00;;;;;;;18.15;11.95;;;9.50;99.90;;;;;;4169322;28;20048;-68
2023/04/07 04:09:00;;;;;;;14.43;10.35;;;9.50;99.90;;;;;;4168269;28;20056;-67
2023/04/07 04:11:01;;;;;;;15.93;10.55;;;9.50;99.90;;;;;;4168413;28;20412;-68
2023/04/07 04:13:05;;;;;;;19.17;11.88;;;9.50;99.90;;;;;;4173300;28;20040;-67
2023/04/07 04:15:06;;;;;;;19.10;11.52;;;9.50;99.90;;;;;;4173719;28;20476;-68
2023/04/07 04:17:07;;;;;;;17.65;10.98;;;9.50;99.90;;;;;;4169225;28;20033;-67
2023/04/07 04:19:07;;;;;;;17.17;10.13;;;9.50;99.90;;;;;;4169541;28;20053;-67
2023/04/07 04:21:08;;;;;;;14.43;9.73;;;9.50;99.90;;;;;;4172163;28;20045;-67
2023/04/07 04:23:08;;;;;;;13.35;8.70;;;9.50;99.90;;;;;;4171833;28;20468;-67
2023/04/07 04:25:09;;;;;;;13.35;9.52;;;9.50;99.90;;;;;;4161389;28;20136;-69
2023/04/07 04:27:10;;;;;;;16.75;9.88;;;9.50;99.90;;;;;;4165994;28;20034;-67
2023/04/07 04:29:10;;;;;;;14.95;9.85;;;9.50;99.90;;;;;;4163754;28;20028;-67
2023/04/07 04:31:11;;;;;;;15.15;10.20;;;9.50;99.90;;;;;;4164152;28;20052;-67
2023/04/07 04:33:11;;;;;;;14.60;8.50;;;9.40;99.90;;;;;;4169750;28;20037;-67
2023/04/07 04:35:12;;;;;;;15.10;9.30;;;9.40;99.90;;;;;;4169101;28;20029;-68
2023/04/07 04:37:13;;;;;;;17.33;9.40;;;9.50;99.90;;;;;;4167412;28;20052;-68
2023/04/07 04:39:13;;;;;;;15.98;8.73;;;9.40;99.90;;;;;;4170533;28;20108;-67
2023/04/07 04:41:14;;;;;;;11.40;9.13;;;9.40;99.90;;;;;;4170771;28;20029;-68
2023/04/07 04:43:15;;;;;;;14.90;8.43;;;9.40;99.90;;;;;;4168949;28;20126;-67
2023/04/07 04:45:15;;;;;;;14.00;8.45;;;9.40;99.90;;;;;;4173442;28;20026;-68
2023/04/07 04:47:16;;;;;;;13.63;8.80;;;9.50;99.90;;;;;;4170648;28;20037;-68
2023/04/07 04:49:17;;;;;;;14.70;9.50;;;9.40;99.90;;;;;;4169402;28;20029;-68
2023/04/07 04:51:18;;;;;;;14.85;8.65;;;9.50;99.90;;;;;;4168712;28;20544;-67
2023/04/07 04:53:19;;;;;;;13.23;8.43;;;9.40;99.90;;;;;;4173039;28;20086;-69
2023/04/07 04:55:20;;;;;;;12.50;8.60;;;9.50;99.90;;;;;;4170330;28;20123;-68
2023/04/07 04:57:20;;;;;;;10.98;7.75;;;9.50;99.90;;;;;;4171329;28;20071;-68
2023/04/07 04:59:22;;;;;;;13.95;8.13;;;9.50;99.90;;;;;;4169058;28;20037;-67
2023/04/07 05:01:22;;;;;;;12.10;7.97;;;9.50;99.90;;;;;;4167035;28;20484;-68
2023/04/07 05:03:25;;;;;;;15.55;9.07;;;9.40;99.90;;;;;;4169744;28;20043;-67
2023/04/07 05:05:25;;;;;;;10.65;7.97;;;9.40;99.90;;;;;;4170979;28;21074;-67
2023/04/07 05:07:26;;;;;;;11.52;8.15;;;9.50;99.90;;;;;;4168968;28;20065;-67
2023/04/07 05:09:27;;;;;;;14.93;8.95;;;9.50;99.90;;;;;;4167265;28;20057;-67
2023/04/07 05:11:27;;;;;;;17.92;9.32;;;9.50;99.90;;;;;;4168971;28;20037;-67
2023/04/07 05:13:29;;;;;;;15.80;9.20;;;9.50;99.90;;;;;;4167741;28;20032;-67
2023/04/07 05:15:30;;;;;;;13.00;9.05;;;9.50;99.90;;;;;;4168213;28;20032;-67
2023/04/07 05:17:30;;;;;;;14.73;8.27;;;9.50;99.90;;;;;;4170775;28;20120;-67
2023/04/07 05:19:31;;;;;;;10.70;7.25;;;9.40;99.90;;;;;;4169203;28;20037;-67
2023/04/07 05:21:32;;;;;;;14.73;8.98;;;9.40;99.90;;;;;;4167392;28;20062;-67
2023/04/07 05:23:32;;;;;;;14.13;8.75;;;9.50;99.90;;;;;;4166928;28;20021;-67
2023/04/07 05:25:33;;;;;;;16.42;9.07;;;9.40;99.90;;;;;;4170651;28;20045;-67
2023/04/07 05:27:34;;;;;;;15.63;8.30;;;9.40;99.90;;;;;;4165904;28;20076;-67
2023/04/07 05:29:35;;;;;;;11.80;8.32;;;9.40;99.90;;;;;;4172767;28;20075;-67
2023/04/07 05:31:36;;;;;;;14.98;9.00;;;9.40;99.90;;;;;;4170538;28;20125;-67
2023/04/07 05:33:36;;;;;;;11.63;7.57;;;9.50;99.90;;;;;;4175564;28;20469;-67
2023/04/07 05:35:37;;;;;;;15.45;8.60;;;9.50;99.90;;;;;;4170509;28;20065;-67
2023/04/07 05:37:38;;;;;;;11.77;7.82;;;9.50;99.90;;;;;;4167368;28;20038;-67
2023/04/07 05:39:38;;;;;;;10.50;7.68;;;9.50;99.90;;;;;;4171289;28;20036;-67
2023/04/07 05:41:39;;;;;;;12.35;7.60;;;9.50;99.90;;;;;;4170404;28;20041;-67
2023/04/07 05:43:39;;;;;;;9.82;6.68;;;9.50;99.90;;;;;;4166347;28;20057;-67
2023/04/07 05:45:40;;;;;;;12.18;7.38;;;9.50;99.90;;;;;;4169334;28;20030;-67
2023/04/07 05:47:41;;;;;;;10.32;6.47;;;9.50;99.90;;;;;;4168021;28;20041;-67
2023/04/07 05:49:44;;;;;;;9.35;6.15;;;9.50;99.90;;;;;;4168989;28;20040;-67
2023/04/07 05:51:45;;;;;;;10.00;6.72;;;9.60;99.90;;;;;;4162867;28;20038;-67
2023/04/07 05:53:46;;;;;;;9.88;6.13;;;9.50;99.90;;;;;;4166086;28;20388;-67
2023/04/07 05:55:46;;;;;;;9.38;6.32;;;9.50;99.90;;;;;;4168394;28;20435;-67
2023/04/07 05:57:48;;;;;;;12.55;7.32;;;9.60;99.90;;;;;;4169674;28;20359;-67
2023/04/07 05:59:48;;;;;;;10.82;6.72;;;9.60;99.90;;;;;;4168157;28;20033;-68
2023/04/07 06:01:49;;;;;;;11.25;6.47;;;9.50;99.90;;;;;;4169705;28;20037;-67
2023/04/07 06:03:49;;;;;;;12.88;7.25;;;9.60;99.90;;;;;;4170915;28;20083;-67
2023/04/07 06:05:50;;;;;;;11.07;6.63;;;9.60;99.90;;;;;;4173367;28;20033;-67
2023/04/07 06:07:51;;;;;;;13.88;7.43;;;9.60;99.90;;;;;;4168353;28;20127;-67
2023/04/07 06:09:52;;;;;;;11.10;6.97;;;9.60;99.90;;;;;;4170975;28;20501;-67
2023/04/07 06:11:53;;;;;;;12.98;7.93;;;9.60;99.90;;;;;;4168580;28;20399;-68
2023/04/07 06:13:54;;;;;;;11.60;6.60;;;9.60;99.90;;;;;;4171838;28;20119;-68
2023/04/07 06:15:55;;;;;;;11.48;7.68;;;9.60;99.90;;;;;;4170349;28;20500;-67
2023/04/07 06:17:56;;;;;;;9.88;6.72;;;9.60;99.90;;;;;;4170777;28;20377;-67
2023/04/07 06:19:57;;;;;;;10.40;6.90;;;9.60;99.90;;;;;;4165382;28;20040;-67
2023/04/07 06:21:57;;;;;;;12.40;7.53;;;9.70;99.90;;;;;;4171447;28;20033;-67
2023/04/07 06:23:58;;;;;;;9.25;6.72;;;9.70;99.90;;;;;;4166589;28;20052;-67
2023/04/07 06:25:59;;;;;;;8.77;6.75;;;9.70;99.90;;;;;;4171142;28;20038;-67
2023/04/07 06:28:00;;;;;;;9.02;6.55;;;9.70;99.90;;;;;;4171811;28;20099;-66
2023/04/07 06:30:00;;;;;;;10.18;6.82;;;9.70;99.90;;;;;;4164092;28;20041;-67
2023/04/07 06:32:01;;;;;;;11.48;7.30;;;9.70;99.90;;;;;;4170518;28;20037;-67
2023/04/07 06:34:01;;;;;;;11.73;7.32;;;9.70;99.90;;;;;;4168877;28;20048;-67
2023/04/07 06:36:02;;;;;;;11.45;7.70;;;9.80;99.90;;;;;;4168117;28;20491;-67
2023/04/07 06:38:03;;;;;;;10.48;8.07;;;9.80;99.90;;;;;;4165993;28;20045;-67
2023/04/07 06:40:05;;;;;;;11.00;8.35;;;9.80;99.90;;;;;;4165732;28;20037;-68
2023/04/07 06:42:06;;;;;;;12.93;8.10;;;9.80;99.90;;;;;;4170694;28;20065;-67
2023/04/07 06:44:06;;;;;;;11.40;7.53;;;9.80;99.90;;;;;;4168776;28;20552;-67
2023/04/07 06:46:07;;;;;;;12.10;8.30;;;9.80;99.90;;;;;;4167734;28;20438;-67
2023/04/07 06:48:09;;;;;;;10.25;7.80;;;9.80;99.90;;;;;;4169290;28;20044;-67
2023/04/07 06:50:10;;;;;;;17.00;9.55;;;9.90;99.90;;;;;;4168927;28;20034;-68
2023/04/07 06:52:11;;;;;;;14.85;8.63;;;9.80;99.90;;;;;;4165244;28;20111;-67
2023/04/07 06:54:12;;;;;;;16.30;9.57;;;9.80;99.90;;;;;;4168733;28;20038;-67
2023/04/07 06:56:13;;;;;;;13.82;9.30;;;9.80;99.90;;;;;;4168659;28;20064;-67
2023/04/07 06:58:14;;;;;;;14.82;9.40;;;9.80;99.90;;;;;;4170127;28;20049;-67
2023/04/07 07:00:15;;;;;;;15.43;10.10;;;9.80;99.90;;;;;;4164221;28;20056;-67
2023/04/07 07:02:15;;;;;;;18.67;10.02;;;9.80;99.90;;;;;;4169709;28;20037;-67
2023/04/07 07:04:16;;;;;;;15.57;10.93;;;9.80;99.90;;;;;;4169698;28;20033;-67
2023/04/07 07:06:16;;;;;;;14.45;9.80;;;9.80;99.90;;;;;;4157432;28;20029;-68
2023/04/07 07:08:17;;;;;;;14.07;9.50;;;9.80;99.90;;;;;;4163918;28;20099;-67
2023/04/07 07:10:19;;;;;;;15.88;9.55;;;9.80;99.90;;;;;;4166849;28;20040;-67
2023/04/07 07:12:20;;;;;;;15.48;10.38;;;9.80;99.90;;;;;;4165776;28;20033;-67
2023/04/07 07:14:20;;;;;;;13.50;9.88;;;9.80;99.90;;;;;;4167793;28;20021;-67
2023/04/07 07:16:22;;;;;;;16.88;10.38;;;9.80;99.90;;;;;;4168009;28;20052;-67
2023/04/07 07:18:23;;;;;;;17.75;9.95;;;9.80;99.90;;;;;;4171821;28;20503;-68
2023/04/07 07:20:24;;;;;;;15.07;9.43;;;9.80;99.90;;;;;;4169486;28;20026;-67
2023/04/07 07:22:25;;;;;;;16.15;9.55;;;9.80;99.90;;;;;;4166521;28;20056;-67
2023/04/07 07:24:28;;;;;;;16.02;9.45;;;9.80;99.90;;;;;;4165716;28;20029;-67
2023/04/07 07:26:28;;;;;;;19.73;10.85;;;9.80;99.90;;;;;;4169245;28;20041;-67
2023/04/07 07:28:29;;;;;;;15.15;10.40;;;9.80;99.90;;;;;;4169069;28;20028;-68
2023/04/07 07:30:30;;;;;;;17.10;11.00;;;9.80;99.90;;;;;;4167463;28;20040;-67
2023/04/07 07:32:31;;;;;;;18.88;11.35;;;9.90;99.90;;;;;;4167715;28;20056;-67
2023/04/07 07:34:32;;;;;;;25.20;12.45;;;9.80;99.90;;;;;;4168078;28;20025;-67
2023/04/07 07:36:32;;;;;;;22.55;11.57;;;9.80;99.90;;;;;;4167034;28;20028;-67
2023/04/07 07:38:33;;;;;;;19.08;10.35;;;9.80;99.90;;;;;;4165054;28;20041;-67
2023/04/07 07:40:33;;;;;;;19.48;10.38;;;9.80;99.90;;;;;;4166066;28;20539;-67
2023/04/07 07:42:34;;;;;;;21.92;11.82;;;9.80;99.90;;;;;;4166080;28;20053;-67
2023/04/07 07:44:34;;;;;;;21.30;11.98;;;9.80;99.90;;;;;;4167259;28;20449;-67
2023/04/07 07:46:35;;;;;;;21.00;10.45;;;9.80;99.90;;;;;;4168093;28;20060;-67
2023/04/07 07:48:36;;;;;;;18.90;11.40;;;9.80;99.90;;;;;;4169871;28;20041;-67
2023/04/07 07:50:36;;;;;;;21.23;11.88;;;9.80;99.90;;;;;;4165082;28;20057;-67
2023/04/07 07:52:37;;;;;;;18.30;11.90;;;9.80;99.90;;;;;;4166804;28;20026;-67
2023/04/07 07:54:37;;;;;;;23.52;12.50;;;9.80;99.90;;;;;;4167081;28;20543;-67
2023/04/07 07:56:38;;;;;;;18.95;11.50;;;9.80;99.90;;;;;;4167034;28;20087;-67
2023/04/07 07:58:39;;;;;;;21.63;11.38;;;9.80;99.90;;;;;;4167440;28;20033;-68
2023/04/07 08:00:40;;;;;;;20.67;10.80;;;9.80;99.90;;;;;;4166528;28;20431;-67
2023/04/07 08:02:40;;;;;;;18.50;9.88;;;9.80;99.90;;;;;;4168904;28;20029;-67
2023/04/07 08:04:41;;;;;;;23.08;11.60;;;9.90;99.90;;;;;;4165935;28;20423;-67
2023/04/07 08:06:42;;;;;;;18.27;11.23;;;9.90;99.90;;;;;;4166866;28;20047;-67
2023/04/07 08:08:42;;;;;;;24.13;12.77;;;9.90;99.90;;;;;;4165851;28;20029;-67
2023/04/07 08:10:43;;;;;;;22.10;11.10;;;9.90;99.90;;;;;;4166069;28;20384;-67
2023/04/07 08:12:43;;;;;;;22.83;12.25;;;10.00;99.90;;;;;;4167481;28;20936;-67
2023/04/07 08:14:44;;;;;;;20.10;11.02;;;10.00;99.90;;;;;;4167838;28;20048;-67
2023/04/07 08:16:45;;;;;;;20.55;12.05;;;10.00;99.90;;;;;;4168460;28;20087;-67
2023/04/07 08:18:46;;;;;;;20.08;10.85;;;10.00;99.90;;;;;;4174442;28;20057;-67
2023/04/07 08:20:46;;;;;;;17.80;11.18;;;10.00;99.90;;;;;;4164810;28;20025;-67
2023/04/07 08:22:47;;;;;;;18.75;11.15;;;10.10;99.90;;;;;;4164106;28;20045;-68
2023/04/07 08:24:48;;;;;;;23.23;12.45;;;10.00;99.90;;;;;;4164886;28;20044;-68
2023/04/07 08:26:48;;;;;;;18.60;10.93;;;10.10;99.90;;;;;;4165439;28;20038;-68
2023/04/07 08:28:52;;;;;;;19.65;10.98;;;10.10;99.90;;;;;;4167371;28;20047;-67
2023/04/07 08:30:52;;;;;;;20.73;11.65;;;10.20;99.90;;;;;;4166726;28;20506;-67
2023/04/07 08:32:53;;;;;;;18.75;11.48;;;10.20;99.90;;;;;;4163277;28;20057;-67
2023/04/07 08:34:55;;;;;;;19.00;11.30;;;10.30;99.90;;;;;;4167787;28;20029;-68
2023/04/07 08:36:55;;;;;;;23.70;11.80;;;10.30;99.90;;;;;;4169676;28;20041;-67
2023/04/07 08:38:57;;;;;;;19.55;11.65;;;10.30;99.90;;;;;;4171658;28;20052;-67
2023/04/07 08:41:03;;;;;;;22.83;12.40;;;10.30;99.90;;;;;;4164629;28;20041;-67
2023/04/07 08:43:09;;;;;;;20.92;13.18;;;10.30;99.90;;;;;;4165728;28;20359;-67
2023/04/07 08:45:10;;;;;;;19.55;12.55;;;10.30;99.90;;;;;;4165724;28;20540;-68
2023/04/07 08:47:11;;;;;;;29.05;13.25;;;10.30;99.90;;;;;;4165014;28;20096;-67
2023/04/07 08:49:14;;;;;;;25.35;13.70;;;10.40;99.90;;;;;;4164996;28;20121;-67
2023/04/07 08:51:19;;;;;;;19.40;12.80;;;10.30;99.90;;;;;;4169892;28;20136;-67
2023/04/07 08:53:28;;;;;;;22.23;12.07;;;10.40;99.90;;;;;;4165454;28;20040;-67
2023/04/07 08:55:29;;;;;;;32.30;13.98;;;10.40;99.90;;;;;;4167949;28;20034;-67
2023/04/07 08:57:31;;;;;;;25.02;14.63;;;10.40;99.90;;;;;;4164753;28;20358;-67
2023/04/07 08:59:32;;;;;;;24.80;15.30;;;10.40;99.90;;;;;;4167379;28;20040;-66
2023/04/07 09:01:35;;;;;;;20.70;12.52;;;10.50;99.90;;;;;;4165707;28;20838;-67
2023/04/07 09:03:36;;;;;;;24.00;13.45;;;10.50;99.90;;;;;;4164334;28;20064;-66
2023/04/07 09:05:38;;;;;;;25.20;13.77;;;10.50;99.90;;;;;;4163535;28;20044;-66
2023/04/07 09:07:39;;;;;;;23.52;13.13;;;10.50;99.90;;;;;;4165023;28;20037;-67
2023/04/07 09:09:40;;;;;;;24.23;13.80;;;10.40;99.90;;;;;;4165552;28;20033;-67
2023/04/07 09:11:40;;;;;;;19.75;12.15;;;10.50;99.90;;;;;;4163861;28;20047;-67
2023/04/07 09:13:41;;;;;;;18.60;12.30;;;10.50;99.90;;;;;;4165613;28;20056;-66
2023/04/07 09:15:42;;;;;;;27.65;13.88;;;10.50;99.90;;;;;;4165147;28;20042;-66
2023/04/07 09:17:42;;;;;;;25.83;13.25;;;10.50;99.90;;;;;;4168676;28;20056;-67
2023/04/07 09:19:43;;;;;;;22.80;13.32;;;10.50;99.90;;;;;;4167727;28;20033;-66
2023/04/07 09:21:49;;;;;;;19.00;11.98;;;10.40;99.90;;;;;;4166894;28;20057;-66
2023/04/07 09:23:49;;;;;;;21.55;12.45;;;10.40;99.90;;;;;;4166279;28;20428;-67
2023/04/07 09:25:50;;;;;;;27.45;13.07;;;10.40;99.90;;;;;;4165076;28;20034;-66
2023/04/07 09:27:57;;;;;;;22.98;12.60;;;10.40;99.90;;;;;;4167858;28;20124;-67
2023/04/07 09:30:13;;;;;;;21.13;11.75;;;10.40;99.90;;;;;;4169349;28;20040;-66
2023/04/07 09:32:37;;;;;;;24.92;13.25;;;10.40;99.90;;;;;;4162206;28;20614;-66
2023/04/07 09:34:39;;;;;;;22.88;12.88;;;10.40;99.90;;;;;;4161656;28;20128;-66
2023/04/07 09:36:41;;;;;;;21.05;12.88;;;10.40;99.90;;;;;;4165008;28;20025;-66
2023/04/07 09:38:43;;;;;;;19.67;10.93;;;10.40;99.90;;;;;;4170169;28;20061;-66
2023/04/07 09:40:44;;;;;;;21.38;12.02;;;10.40;99.90;;;;;;4169691;28;20037;-66
2023/04/07 09:42:45;;;;;;;20.92;11.85;;;10.40;99.90;;;;;;4172893;28;20083;-66
2023/04/07 09:44:46;;;;;;;20.27;12.38;;;10.40;99.90;;;;;;4170687;28;20041;-66
2023/04/07 09:46:50;;;;;;;16.30;10.88;;;10.40;99.90;;;;;;4166938;28;20507;-66
2023/04/07 09:49:03;;;;;;;19.67;11.25;;;10.40;99.90;;;;;;4175035;28;20116;-67
2023/04/07 09:51:05;;;;;;;;;;;10.40;99.90;;;;;;4168071;28;20025;-66
2023/04/07 09:53:06;;;;;;;21.48;10.52;;;10.30;99.90;;;;;;4171944;28;19908;-66
2023/04/07 09:55:07;;;;;;;18.80;11.15;;;10.30;99.90;;;;;;4170543;28;20120;-66
2023/04/07 09:57:09;;;;;;;19.27;11.05;;;10.40;99.90;;;;;;4170542;28;20083;-66
2023/04/07 09:59:10;;;;;;;16.23;9.63;;;10.40;99.90;;;;;;4180629;28;20393;-66
2023/04/07 10:01:12;;;;;;;15.13;10.00;;;10.40;99.90;;;;;;4171984;28;20092;-66
2023/04/07 10:03:14;;;;;;;19.57;11.30;;;10.40;99.90;;;;;;4164090;28;20053;-66
2023/04/07 10:05:14;;;;;;;16.80;10.03;;;10.40;99.90;;;;;;4163703;28;20035;-66
2023/04/07 10:07:15;;;;;;;17.10;9.70;;;10.40;99.90;;;;;;4164121;28;20287;-66
2023/04/07 10:09:16;;;;;;;17.38;10.18;;;10.50;99.90;;;;;;4164299;28;20037;-66
2023/04/07 10:11:17;;;;;;;19.33;10.93;;;10.40;99.90;;;;;;4164984;28;20034;-66
2023/04/07 10:13:20;;;;;;;15.70;9.15;;;10.40;99.90;;;;;;4172355;28;20432;-66
2023/04/07 10:15:21;;;;;;;14.18;9.15;;;10.50;99.90;;;;;;4172614;28;20041;-66
2023/04/07 10:17:23;;;;;;;17.30;9.30;;;10.50;99.90;;;;;;4169116;28;20113;-66
2023/04/07 10:19:25;;;;;;;18.83;10.25;;;10.50;99.90;;;;;;4177146;28;20033;-66
2023/04/07 10:21:26;;;;;;;16.50;10.32;;;10.50;99.90;;;;;;4162793;28;20037;-67
2023/04/07 10:23:57;;;;;;;14.35;10.32;;;10.50;99.90;;;;;;4170307;28;20387;-66
2023/04/07 10:25:59;;;;;;;15.95;8.90;;;10.40;99.90;;;;;;4166390;28;20448;-66
2023/04/07 10:28:05;;;;;;;;;;;10.50;99.90;;;;;;4172130;28;20485;-66